Time,TemperatureF,DewpointF,PressureIn,WindDirection,WindDirectionDegrees,WindSpeedMPH,WindSpeedGustMPH,Humidity,HourlyPrecipIn,Conditions,Clouds,dailyrainin,SolarRadiationWatts/m^2,SoftwareType,DateUTC
2013-08-17 00:21:00,51.0,25.0,-100.00,WNW,285,3.0,6.0,36,0.00,,,0.00,0.000000,,2013-08-17 06:21:00,
2013-08-17 00:31:00,51.0,25.0,-100.00,WNW,285,3.0,6.0,36,0.00,,,0.00,0.000000,,2013-08-17 06:31:00,
2013-08-17 00:42:00,51.0,25.0,-100.00,WNW,285,3.0,6.0,36,0.00,,,0.00,0.000000,,2013-08-17 06:42:00,
2013-08-17 00:51:00,51.0,25.0,-100.00,WNW,285,3.0,6.0,36,0.00,,,0.00,0.000000,,2013-08-17 06:51:00,
2013-08-17 01:22:00,50.0,24.0,-100.00,WSW,257,3.0,5.0,36,0.00,,,0.00,0.000000,,2013-08-17 07:22:00,
2013-08-17 01:32:00,50.0,24.0,-100.00,WSW,257,3.0,5.0,36,0.00,,,0.00,0.000000,,2013-08-17 07:32:00,
2013-08-17 01:42:00,50.0,24.0,-100.00,WSW,257,3.0,5.0,36,0.00,,,0.00,0.000000,,2013-08-17 07:42:00,
2013-08-17 01:52:00,50.0,24.0,-100.00,WSW,257,3.0,5.0,36,0.00,,,0.00,0.000000,,2013-08-17 07:52:00,
2013-08-17 02:21:00,50.0,23.0,-100.00,NW,319,3.0,5.0,35,0.00,,,0.00,0.000000,,2013-08-17 08:21:00,
2013-08-17 02:32:00,50.0,23.0,-100.00,NW,319,3.0,5.0,35,0.00,,,0.00,0.000000,,2013-08-17 08:32:00,
2013-08-17 02:42:00,50.0,23.0,-100.00,NW,319,3.0,5.0,35,0.00,,,0.00,0.000000,,2013-08-17 08:42:00,
2013-08-17 02:52:00,50.0,23.0,-100.00,NW,319,3.0,5.0,35,0.00,,,0.00,0.000000,,2013-08-17 08:52:00,
2013-08-17 03:21:00,46.0,27.0,-100.00,SSE,156,3.0,4.0,48,0.00,,,0.00,0.000000,,2013-08-17 09:21:00,
2013-08-17 03:33:00,46.0,27.0,-100.00,SSE,156,3.0,4.0,48,0.00,,,0.00,0.000000,,2013-08-17 09:33:00,
2013-08-17 03:43:00,46.0,27.0,-100.00,SSE,156,3.0,4.0,48,0.00,,,0.00,0.000000,,2013-08-17 09:43:00,
2013-08-17 03:53:00,46.0,27.0,-100.00,SSE,156,3.0,4.0,48,0.00,,,0.00,0.000000,,2013-08-17 09:53:00,
2013-08-17 04:23:00,45.0,24.0,-100.00,South,170,2.0,3.0,44,0.00,,,0.00,0.000000,,2013-08-17 10:23:00,
2013-08-17 04:32:00,45.0,24.0,-100.00,South,170,2.0,3.0,44,0.00,,,0.00,0.000000,,2013-08-17 10:32:00,
2013-08-17 04:42:00,45.0,24.0,-100.00,South,170,2.0,3.0,44,0.00,,,0.00,0.000000,,2013-08-17 10:42:00,
2013-08-17 04:52:00,45.0,24.0,-100.00,South,170,2.0,3.0,44,0.00,,,0.00,0.000000,,2013-08-17 10:52:00,
2013-08-17 05:22:00,43.0,25.0,-100.00,ENE,62,1.0,4.0,48,0.00,,,0.00,0.000000,,2013-08-17 11:22:00,
2013-08-17 05:32:00,43.0,25.0,-100.00,ENE,62,1.0,4.0,48,0.00,,,0.00,0.000000,,2013-08-17 11:32:00,
2013-08-17 05:42:00,43.0,25.0,-100.00,ENE,62,1.0,4.0,48,0.00,,,0.00,0.000000,,2013-08-17 11:42:00,
2013-08-17 05:52:00,43.0,25.0,-100.00,ENE,62,1.0,4.0,48,0.00,,,0.00,0.000000,,2013-08-17 11:52:00,
2013-08-17 06:21:00,44.0,26.0,-100.00,SE,139,0.0,3.0,48,0.00,,,0.00,0.000000,,2013-08-17 12:21:00,
2013-08-17 06:32:00,44.0,26.0,-100.00,SE,139,0.0,3.0,48,0.00,,,0.00,0.000000,,2013-08-17 12:32:00,
2013-08-17 07:21:00,43.0,25.0,-100.00,North,2,0.0,2.0,49,0.00,,,0.00,10.000000,,2013-08-17 13:21:00,
2013-08-17 07:32:00,43.0,25.0,-100.00,North,2,0.0,2.0,49,0.00,,,0.00,10.000000,,2013-08-17 13:32:00,
2013-08-17 08:21:00,50.0,31.0,-100.00,NW,306,0.0,1.0,47,0.00,,,0.00,118.000000,,2013-08-17 14:21:00,
2013-08-17 08:32:00,50.0,31.0,-100.00,NW,306,0.0,1.0,47,0.00,,,0.00,118.000000,,2013-08-17 14:32:00,
2013-08-17 08:42:00,50.0,31.0,-100.00,NW,306,0.0,1.0,47,0.00,,,0.00,118.000000,,2013-08-17 14:42:00,
2013-08-17 08:52:00,50.0,31.0,-100.00,NW,306,0.0,1.0,47,0.00,,,0.00,118.000000,,2013-08-17 14:52:00,
2013-08-17 09:22:00,54.0,33.0,-100.00,NE,55,3.0,5.0,44,0.00,,,0.00,415.000000,,2013-08-17 15:22:00,
2013-08-17 09:33:00,54.0,33.0,-100.00,NE,55,3.0,5.0,44,0.00,,,0.00,415.000000,,2013-08-17 15:33:00,
2013-08-17 09:44:00,54.0,33.0,-100.00,NE,55,3.0,5.0,44,0.00,,,0.00,415.000000,,2013-08-17 15:44:00,
2013-08-17 09:53:00,54.0,33.0,-100.00,NE,55,3.0,5.0,44,0.00,,,0.00,415.000000,,2013-08-17 15:53:00,
2013-08-17 10:23:00,62.0,31.0,-100.00,ESE,118,4.0,5.0,31,0.00,,,0.00,525.000000,,2013-08-17 16:23:00,
2013-08-17 10:33:00,62.0,31.0,-100.00,ESE,118,4.0,5.0,31,0.00,,,0.00,525.000000,,2013-08-17 16:33:00,
2013-08-17 10:42:00,62.0,31.0,-100.00,ESE,118,4.0,5.0,31,0.00,,,0.00,525.000000,,2013-08-17 16:42:00,
2013-08-17 10:53:00,62.0,31.0,-100.00,ESE,118,4.0,5.0,31,0.00,,,0.00,525.000000,,2013-08-17 16:53:00,
2013-08-17 11:42:00,70.0,32.0,-100.00,ESE,116,6.0,9.0,24,0.00,,,0.00,932.000000,,2013-08-17 17:42:00,
2013-08-17 11:52:00,70.0,32.0,-100.00,ESE,116,6.0,9.0,24,0.00,,,0.00,932.000000,,2013-08-17 17:52:00,
2013-08-17 12:21:00,69.0,29.0,-100.00,NW,322,3.0,11.0,22,0.00,,,0.00,811.000000,,2013-08-17 18:21:00,
2013-08-17 12:32:00,69.0,29.0,-100.00,NW,322,3.0,11.0,22,0.00,,,0.00,811.000000,,2013-08-17 18:32:00,
2013-08-17 12:42:00,69.0,29.0,-100.00,NW,322,3.0,11.0,22,0.00,,,0.00,811.000000,,2013-08-17 18:42:00,
2013-08-17 12:52:00,69.0,29.0,-100.00,NW,322,3.0,11.0,22,0.00,,,0.00,811.000000,,2013-08-17 18:52:00,
2013-08-17 13:21:00,70.0,28.0,-100.00,SW,214,4.0,12.0,21,0.00,,,0.00,597.000000,,2013-08-17 19:21:00,
2013-08-17 13:32:00,70.0,28.0,-100.00,SW,214,4.0,12.0,21,0.00,,,0.00,597.000000,,2013-08-17 19:32:00,
2013-08-17 13:42:00,70.0,28.0,-100.00,SW,214,4.0,12.0,21,0.00,,,0.00,597.000000,,2013-08-17 19:42:00,
2013-08-17 13:52:00,70.0,28.0,-100.00,SW,214,4.0,12.0,21,0.00,,,0.00,597.000000,,2013-08-17 19:52:00,
2013-08-17 14:21:00,68.0,25.0,-100.00,SE,134,3.0,10.0,20,0.00,,,0.00,503.000000,,2013-08-17 20:21:00,
2013-08-17 14:32:00,68.0,25.0,-100.00,SE,134,3.0,10.0,20,0.00,,,0.00,503.000000,,2013-08-17 20:32:00,
2013-08-17 14:42:00,68.0,25.0,-100.00,SE,134,3.0,10.0,20,0.00,,,0.00,503.000000,,2013-08-17 20:42:00,
2013-08-17 14:52:00,68.0,25.0,-100.00,SE,134,3.0,10.0,20,0.00,,,0.00,503.000000,,2013-08-17 20:52:00,
2013-08-17 15:21:00,72.0,23.0,-100.00,East,85,6.0,10.0,16,0.00,,,0.00,594.000000,,2013-08-17 21:21:00,
2013-08-17 15:33:00,72.0,23.0,-100.00,East,85,6.0,10.0,16,0.00,,,0.00,594.000000,,2013-08-17 21:33:00,
2013-08-17 15:42:00,72.0,23.0,-100.00,East,85,6.0,10.0,16,0.00,,,0.00,594.000000,,2013-08-17 21:42:00,
2013-08-17 15:53:00,72.0,23.0,-100.00,East,85,6.0,10.0,16,0.00,,,0.00,594.000000,,2013-08-17 21:53:00,
2013-08-17 16:23:00,69.0,27.0,-100.00,NNE,24,4.0,12.0,21,0.00,,,0.00,336.000000,,2013-08-17 22:23:00,
2013-08-17 16:33:00,69.0,27.0,-100.00,NNE,24,4.0,12.0,21,0.00,,,0.00,336.000000,,2013-08-17 22:33:00,
2013-08-17 16:42:00,69.0,27.0,-100.00,NNE,24,4.0,12.0,21,0.00,,,0.00,336.000000,,2013-08-17 22:42:00,
2013-08-17 16:52:00,69.0,27.0,-100.00,NNE,24,4.0,12.0,21,0.00,,,0.00,336.000000,,2013-08-17 22:52:00,
2013-08-17 17:22:00,70.0,26.0,-100.00,NW,306,2.0,9.0,19,0.00,,,0.00,318.000000,,2013-08-17 23:22:00,
2013-08-17 17:32:00,70.0,26.0,-100.00,NW,306,2.0,9.0,19,0.00,,,0.00,318.000000,,2013-08-17 23:32:00,
2013-08-17 17:42:00,70.0,26.0,-100.00,NW,306,2.0,9.0,19,0.00,,,0.00,318.000000,,2013-08-17 23:42:00,
2013-08-17 17:52:00,70.0,26.0,-100.00,NW,306,2.0,9.0,19,0.00,,,0.00,318.000000,,2013-08-17 23:52:00,
2013-08-17 18:21:00,73.0,26.0,-100.00,NE,37,4.0,8.0,17,0.00,,,-99.99,476.000000,,2013-08-18 00:21:00,
2013-08-17 18:32:00,73.0,26.0,-100.00,NE,37,4.0,8.0,17,0.00,,,-99.99,476.000000,,2013-08-18 00:32:00,
2013-08-17 18:42:00,73.0,26.0,-100.00,NE,37,4.0,8.0,17,0.00,,,-99.99,476.000000,,2013-08-18 00:42:00,
2013-08-17 18:52:00,73.0,26.0,-100.00,NE,37,4.0,8.0,17,0.00,,,-99.99,476.000000,,2013-08-18 00:52:00,
2013-08-17 19:21:00,66.0,29.0,-100.00,NNW,337,4.0,9.0,25,-99.99,,,0.00,184.000000,,2013-08-18 01:21:00,
2013-08-17 19:31:00,66.0,29.0,-100.00,NNW,337,4.0,9.0,25,-99.99,,,0.00,184.000000,,2013-08-18 01:31:00,
2013-08-17 19:42:00,66.0,29.0,-100.00,NNW,337,4.0,9.0,25,-99.99,,,0.00,184.000000,,2013-08-18 01:42:00,
2013-08-17 19:52:00,66.0,29.0,-100.00,NNW,337,4.0,9.0,25,-99.99,,,0.00,184.000000,,2013-08-18 01:52:00,
2013-08-17 20:21:00,62.0,27.0,-100.00,NW,317,5.0,9.0,26,0.00,,,0.00,85.000000,,2013-08-18 02:21:00,
2013-08-17 20:32:00,62.0,27.0,-100.00,NW,317,5.0,9.0,26,0.00,,,0.00,85.000000,,2013-08-18 02:32:00,
2013-08-17 20:42:00,62.0,27.0,-100.00,NW,317,5.0,9.0,26,0.00,,,0.00,85.000000,,2013-08-18 02:42:00,
2013-08-17 20:52:00,62.0,27.0,-100.00,NW,317,5.0,9.0,26,0.00,,,0.00,85.000000,,2013-08-18 02:52:00,
2013-08-17 21:21:00,60.0,27.0,-100.00,NW,317,6.0,10.0,28,0.00,,,0.00,1.000000,,2013-08-18 03:21:00,
2013-08-17 21:33:00,60.0,27.0,-100.00,NW,317,6.0,10.0,28,0.00,,,0.00,1.000000,,2013-08-18 03:33:00,
2013-08-17 21:43:00,60.0,27.0,-100.00,NW,317,6.0,10.0,28,0.00,,,0.00,1.000000,,2013-08-18 03:43:00,
2013-08-17 21:53:00,60.0,27.0,-100.00,NW,317,6.0,10.0,28,0.00,,,0.00,1.000000,,2013-08-18 03:53:00,
2013-08-17 22:23:00,58.0,28.0,-100.00,NW,318,7.0,15.0,32,0.00,,,0.00,0.000000,,2013-08-18 04:23:00,
2013-08-17 22:32:00,58.0,28.0,-100.00,NW,318,7.0,15.0,32,0.00,,,0.00,0.000000,,2013-08-18 04:32:00,
2013-08-17 22:42:00,58.0,28.0,-100.00,NW,318,7.0,15.0,32,0.00,,,0.00,0.000000,,2013-08-18 04:42:00,
2013-08-17 22:53:00,58.0,28.0,-100.00,NW,318,7.0,15.0,32,0.00,,,0.00,0.000000,,2013-08-18 04:53:00,
2013-08-17 23:22:00,56.0,29.0,-100.00,NNW,327,4.0,10.0,36,0.00,,,0.00,0.000000,,2013-08-18 05:22:00,
2013-08-17 23:33:00,56.0,29.0,-100.00,NNW,327,4.0,10.0,36,0.00,,,0.00,0.000000,,2013-08-18 05:33:00,
2013-08-17 23:42:00,56.0,29.0,-100.00,NNW,327,4.0,10.0,36,0.00,,,0.00,0.000000,,2013-08-18 05:42:00,
2013-08-17 23:52:00,56.0,29.0,-100.00,NNW,327,4.0,10.0,36,0.00,,,0.00,0.000000,,2013-08-18 05:52:00,